createdAt,value
2017-05-19T00:00:02.368Z,99.25
2017-05-19T00:10:02.904Z,99.18
2017-05-19T00:20:02.961Z,99.3
2017-05-19T00:30:02.415Z,99.46
2017-05-19T00:40:02.929Z,99.44
2017-05-19T00:50:02.835Z,99.95
2017-05-19T01:00:02.297Z,100
2017-05-19T01:10:02.747Z,100.08
2017-05-19T01:20:02.807Z,99.98
2017-05-19T01:30:02.269Z,99.95
2017-05-19T01:40:02.783Z,99.98
2017-05-19T01:50:02.691Z,99.98
2017-05-19T02:00:02.146Z,100.51
2017-05-19T02:10:02.597Z,100.59
2017-05-19T02:20:02.655Z,100.83
2017-05-19T02:30:02.105Z,100.62
2017-05-19T02:40:02.597Z,100.66
2017-05-19T02:50:02.513Z,100.71
2017-05-19T03:00:02.949Z,100.96
2017-05-19T03:10:02.406Z,101.19
2017-05-19T03:20:02.455Z,101.58
2017-05-19T03:30:02.905Z,101.72
2017-05-19T03:40:02.380Z,101.68
2017-05-19T03:50:02.235Z,101.45
2017-05-19T04:00:02.736Z,101.49
2017-05-19T04:10:02.119Z,101.4
2017-05-19T04:20:02.728Z,101.43
2017-05-19T04:30:02.058Z,101.73
2017-05-19T04:40:02.474Z,101.43
2017-05-19T04:50:02.435Z,101.38
2017-05-19T05:00:02.505Z,101.23
2017-05-19T05:10:02.880Z,101.14
2017-05-19T05:20:02.498Z,101.11
2017-05-19T05:30:02.817Z,100.82
2017-05-19T05:40:02.174Z,100.78
2017-05-19T05:50:02.689Z,100.7
2017-05-19T06:00:02.711Z,100.39
2017-05-19T06:10:02.829Z,100.22
2017-05-19T06:20:02.412Z,100.27
2017-05-19T06:30:02.632Z,100.12
2017-05-19T06:40:02.714Z,99.56
2017-05-19T06:50:02.345Z,99.39
2017-05-19T07:00:02.496Z,99.32
2017-05-19T07:20:02.908Z,97.17
2017-05-19T07:30:03.031Z,96.88
2017-05-19T07:40:02.592Z,96.37
2017-05-19T07:50:02.973Z,95.96
2017-05-19T08:00:06.062Z,96.06
2017-05-19T08:10:02.550Z,95.54
2017-05-19T08:20:02.078Z,95.71
2017-05-19T08:30:02.355Z,94.96
2017-05-19T08:40:02.141Z,93.03
2017-05-19T08:50:02.114Z,90.75
2017-05-19T09:00:02.167Z,89.62
2017-05-19T09:10:02.776Z,89.86
2017-05-19T09:20:02.943Z,89.74
2017-05-19T09:30:02.256Z,90.2
2017-05-19T09:40:02.824Z,90.88
2017-05-19T09:50:02.913Z,91.32
2017-05-19T10:00:02.961Z,91.63
2017-05-19T10:10:02.675Z,92.97
2017-05-19T10:20:02.511Z,92.42
2017-05-19T10:30:02.844Z,92.7
2017-05-19T10:40:02.223Z,91.45
2017-05-19T10:50:02.031Z,90.94
2017-05-19T11:00:02.078Z,90.23
2017-05-19T11:10:02.583Z,89.21
2017-05-19T11:20:02.473Z,89.08
2017-05-19T11:30:02.781Z,88.43
2017-05-19T11:40:02.218Z,87.49
2017-05-19T11:50:02.645Z,85.79
2017-05-19T12:00:02.677Z,83.44
2017-05-19T12:10:02.168Z,83.5
2017-05-19T12:20:02.418Z,83.86
2017-05-19T12:30:02.847Z,85.14
2017-05-19T12:40:03.031Z,81.92
2017-05-19T12:50:02.177Z,82.36
2017-05-19T13:00:02.247Z,82.84
2017-05-19T13:10:02.736Z,81.99
2017-05-19T13:20:02.929Z,80.81
2017-05-19T13:30:02.598Z,80.45
2017-05-19T13:40:02.384Z,80.51
2017-05-19T13:50:02.994Z,79.83
2017-05-19T14:00:02.051Z,80.28
2017-05-19T14:10:02.096Z,84.53
2017-05-19T14:20:02.501Z,86.04
2017-05-19T14:30:02.911Z,84.18
2017-05-19T14:40:02.989Z,80.78
2017-05-19T14:50:02.281Z,82.24
2017-05-19T15:00:02.335Z,82.03
2017-05-19T15:10:02.442Z,83.04
2017-05-19T15:20:02.183Z,84.41
2017-05-19T15:30:02.504Z,84.82
2017-05-19T15:40:02.857Z,83.43
2017-05-19T15:50:02.456Z,83.95
2017-05-19T16:00:02.549Z,83.59
2017-05-19T16:10:02.553Z,85.05
2017-05-19T16:20:02.300Z,86.28
2017-05-19T16:30:02.337Z,87.17
2017-05-19T16:40:02.848Z,87.3
2017-05-19T16:50:02.454Z,87.17
2017-05-19T17:00:02.524Z,88.46
2017-05-19T17:10:02.032Z,89.25
2017-05-19T17:20:02.909Z,90.88
2017-05-19T17:30:02.679Z,92.22
2017-05-19T17:40:02.732Z,94.08
2017-05-19T17:50:02.320Z,97.65
2017-05-19T18:00:02.359Z,97.85
2017-05-19T18:10:02.023Z,99.63
2017-05-19T18:20:02.306Z,100.17
2017-05-19T18:30:02.778Z,101.44
2017-05-19T18:40:02.281Z,102.07
2017-05-19T18:50:02.345Z,102.72
2017-05-19T19:00:02.812Z,102.81
2017-05-19T19:10:02.281Z,102.94
2017-05-19T19:20:02.561Z,103.09
2017-05-19T19:30:02.005Z,103.22
2017-05-19T19:40:02.517Z,103.09
2017-05-19T19:50:02.448Z,103.22
2017-05-19T20:00:02.959Z,103.35
2017-05-19T20:10:02.416Z,103.05
2017-05-19T20:20:02.649Z,102.56
2017-05-19T20:30:02.103Z,101.79
2017-05-19T20:40:02.750Z,101.9
2017-05-19T20:50:02.089Z,102.24
2017-05-19T21:00:02.604Z,102.47
2017-05-19T21:10:02.088Z,102.86
2017-05-19T21:20:02.395Z,102.84
2017-05-19T21:30:02.819Z,102.89
2017-05-19T21:40:02.268Z,103.1
2017-05-19T21:50:02.540Z,103.39
2017-05-19T22:00:02.066Z,103.29
2017-05-19T22:10:02.515Z,103.73
2017-05-19T22:20:02.826Z,103.47
2017-05-19T22:30:02.287Z,103.5
2017-05-19T22:40:02.762Z,103.25
2017-05-19T22:50:02.860Z,103.35
2017-05-19T23:00:02.371Z,103.59
2017-05-19T23:10:02.845Z,103.42
2017-05-19T23:20:02.143Z,103.58
2017-05-19T23:30:02.589Z,103.67
2017-05-19T23:40:02.108Z,103.81
2017-05-19T23:50:02.167Z,103.97
